Time;durP1;ratioP1;P1;durP2;ratioP2;P2;SDS_P1;SDS_P2;PMS_P1;PMS_P2;Temp;Humidity;BMP_temperature;BMP_pressure;BME280_temperature;BME280_humidity;BME280_pressure;Samples;Min_cycle;Max_cycle;Signal;HPM_P1;HPM_P2
2022/10/05 00:01:05;;;;;;;7.95;5.32;;;;;;;;;;4862603;29;20025;-77
2022/10/05 00:03:37;;;;;;;8.38;5.20;;;;;;;;;;4864083;29;20488;-79
2022/10/05 00:06:03;;;;;;;7.60;4.82;;;;;;;;;;4863000;29;20061;-79
2022/10/05 00:08:31;;;;;;;9.77;5.03;;;;;;;;;;4863562;29;20495;-77
2022/10/05 00:10:57;;;;;;;7.53;5.15;;;;;;;;;;4862643;29;20033;-78
2022/10/05 00:13:24;;;;;;;10.00;5.20;;;;;;;;;;4863525;29;20104;-77
2022/10/05 00:15:52;;;;;;;10.77;5.55;;;;;;;;;;4863442;29;20030;-78
2022/10/05 00:18:19;;;;;;;7.05;4.90;;;;;;;;;;4847269;29;20044;-78
2022/10/05 00:20:46;;;;;;;8.52;4.60;;;;;;;;;;4863432;29;20108;-79
2022/10/05 00:23:20;;;;;;;10.43;4.78;;;;;;;;;;4862936;29;20048;-78
2022/10/05 00:25:46;;;;;;;8.55;4.90;;;;;;;;;;4862823;29;20077;-77
2022/10/05 00:28:33;;;;;;;7.00;5.30;;;;;;;;;;4861471;29;20057;-77
2022/10/05 00:31:00;;;;;;;11.57;5.60;;;;;;;;;;4862304;29;20431;-78
2022/10/05 00:33:26;;;;;;;8.57;5.10;;;;;;;;;;4863468;29;20042;-77
2022/10/05 00:35:53;;;;;;;7.90;5.10;;;;;;;;;;4862818;29;20033;-76
2022/10/05 00:38:19;;;;;;;11.90;5.15;;;;;;;;;;4863628;29;20509;-78
2022/10/05 00:41:00;;;;;;;13.60;5.55;;;;;;;;;;4861977;29;20112;-79
2022/10/05 00:43:29;;;;;;;10.30;5.50;;;;;;;;;;4845826;29;20041;-77
2022/10/05 00:45:55;;;;;;;9.75;5.15;;;;;;;;;;4862769;29;20025;-77
2022/10/05 00:48:31;;;;;;;9.80;5.45;;;;;;;;;;4862407;29;20026;-77
2022/10/05 00:51:05;;;;;;;9.40;5.40;;;;;;;;;;4863240;29;20030;-78
2022/10/05 00:53:34;;;;;;;8.75;5.70;;;;;;;;;;4866579;29;20173;-78
2022/10/05 00:56:19;;;;;;;8.57;5.35;;;;;;;;;;4870694;29;20388;-77
2022/10/05 00:59:03;;;;;;;9.80;5.07;;;;;;;;;;4863039;29;20040;-78
2022/10/05 01:01:32;;;;;;;8.38;4.90;;;;;;;;;;4855826;29;20041;-77
2022/10/05 01:04:13;;;;;;;12.55;5.53;;;;;;;;;;4859861;29;20061;-78
2022/10/05 01:07:06;;;;;;;9.48;5.30;;;;;;;;;;4863459;29;20041;-77
2022/10/05 01:09:51;;;;;;;7.43;5.32;;;;;;;;;;4860730;29;20042;-77
2022/10/05 01:12:17;;;;;;;8.05;5.20;;;;;;;;;;4843718;29;20463;-78
2022/10/05 01:14:51;;;;;;;7.72;5.63;;;;;;;;;;4855938;29;20029;-79
2022/10/05 01:17:26;;;;;;;13.80;5.53;;;;;;;;;;4863378;29;20033;-79
2022/10/05 01:20:04;;;;;;;10.10;5.82;;;;;;;;;;4846300;29;20407;-77
2022/10/05 01:22:49;;;;;;;7.88;5.55;;;;;;;;;;4862506;29;20081;-77
2022/10/05 01:25:25;;;;;;;9.82;6.07;;;;;;;;;;4862515;29;20112;-79
2022/10/05 01:27:54;;;;;;;8.20;5.40;;;;;;;;;;4860119;29;20036;-79
2022/10/05 01:30:21;;;;;;;7.70;5.32;;;;;;;;;;4862827;29;20029;-78
2022/10/05 01:32:58;;;;;;;10.07;5.97;;;;;;;;;;4871283;29;20035;-78
2022/10/05 01:35:30;;;;;;;8.10;6.00;;;;;;;;;;4868920;29;20517;-77
2022/10/05 01:38:20;;;;;;;10.85;5.93;;;;;;;;;;4861574;29;20045;-79
2022/10/05 01:40:54;;;;;;;11.00;6.50;;;;;;;;;;4861115;29;20041;-79
2022/10/05 01:43:26;;;;;;;8.57;6.25;;;;;;;;;;4863074;29;20033;-77
2022/10/05 01:45:56;;;;;;;9.73;6.20;;;;;;;;;;4861475;29;20698;-77
2022/10/05 01:48:27;;;;;;;10.00;6.35;;;;;;;;;;4861526;29;20022;-77
2022/10/05 01:51:00;;;;;;;9.05;5.82;;;;;;;;;;4861135;29;20069;-77
2022/10/05 01:53:26;;;;;;;12.07;6.20;;;;;;;;;;4861201;29;20030;-77
2022/10/05 01:55:58;;;;;;;11.23;6.20;;;;;;;;;;4857345;29;20029;-77
2022/10/05 01:58:43;;;;;;;8.23;5.65;;;;;;;;;;4861542;29;20026;-77
2022/10/05 02:01:15;;;;;;;9.55;6.13;;;;;;;;;;4857465;29;20102;-77
2022/10/05 02:03:46;;;;;;;11.57;6.63;;;;;;;;;;4858522;29;20112;-77
2022/10/05 02:06:16;;;;;;;8.40;6.43;;;;;;;;;;4860799;29;20033;-77
2022/10/05 02:08:46;;;;;;;11.10;6.35;;;;;;;;;;4860986;29;20114;-77
2022/10/05 02:11:16;;;;;;;10.48;6.05;;;;;;;;;;4859894;29;20029;-77
2022/10/05 02:13:46;;;;;;;13.15;6.28;;;;;;;;;;4861136;29;20036;-77
2022/10/05 02:16:18;;;;;;;8.90;5.78;;;;;;;;;;4861460;29;20073;-76
2022/10/05 02:18:48;;;;;;;10.43;6.53;;;;;;;;;;4859576;29;20479;-76
2022/10/05 02:21:14;;;;;;;13.48;6.35;;;;;;;;;;4861656;29;20030;-79
2022/10/05 02:23:42;;;;;;;9.93;5.85;;;;;;;;;;4844613;29;20036;-78
2022/10/05 02:26:10;;;;;;;10.52;6.25;;;;;;;;;;4861105;29;20061;-79
2022/10/05 02:28:39;;;;;;;15.45;6.45;;;;;;;;;;4861871;29;20078;-77
2022/10/05 02:31:10;;;;;;;10.75;6.38;;;;;;;;;;4861096;29;20104;-77
2022/10/05 02:33:36;;;;;;;10.05;6.10;;;;;;;;;;4861100;29;20081;-77
2022/10/05 02:36:16;;;;;;;18.92;6.57;;;;;;;;;;4864373;29;20109;-79
2022/10/05 02:38:42;;;;;;;13.73;6.65;;;;;;;;;;4864588;29;20038;-78
2022/10/05 02:41:08;;;;;;;10.10;6.53;;;;;;;;;;4864600;29;20025;-78
2022/10/05 02:43:40;;;;;;;10.10;6.30;;;;;;;;;;4863305;29;20041;-77
2022/10/05 02:46:12;;;;;;;11.45;6.80;;;;;;;;;;4861437;29;20455;-77
2022/10/05 02:48:52;;;;;;;11.13;6.18;;;;;;;;;;4860206;29;20136;-79
2022/10/05 02:51:18;;;;;;;10.98;6.03;;;;;;;;;;4863549;29;20026;-78
2022/10/05 02:53:47;;;;;;;8.63;5.97;;;;;;;;;;4864916;29;20029;-78
2022/10/05 02:56:13;;;;;;;9.00;5.90;;;;;;;;;;4874725;29;20041;-78
2022/10/05 02:58:57;;;;;;;13.90;6.90;;;;;;;;;;4864225;29;20033;-78
2022/10/05 03:01:27;;;;;;;11.73;6.47;;;;;;;;;;4860523;29;20029;-77
2022/10/05 03:03:57;;;;;;;9.13;6.13;;;;;;;;;;4865220;29;20488;-77
2022/10/05 03:06:27;;;;;;;10.50;6.85;;;;;;;;;;4848859;29;20503;-76
2022/10/05 03:09:01;;;;;;;11.68;6.63;;;;;;;;;;4864562;29;20049;-77
2022/10/05 03:11:32;;;;;;;14.80;6.65;;;;;;;;;;4864232;29;20108;-78
2022/10/05 03:14:11;;;;;;;10.45;6.85;;;;;;;;;;4862214;29;20085;-77
2022/10/05 03:16:42;;;;;;;13.95;7.38;;;;;;;;;;4864063;29;20036;-77
2022/10/05 03:19:15;;;;;;;11.45;6.93;;;;;;;;;;4847348;29;20029;-77
2022/10/05 03:21:47;;;;;;;10.55;7.38;;;;;;;;;;4863308;29;20040;-77
2022/10/05 03:24:32;;;;;;;11.20;7.80;;;;;;;;;;4863796;29;20046;-77
2022/10/05 03:26:58;;;;;;;11.63;7.80;;;;;;;;;;4862764;29;20053;-79
2022/10/05 03:29:24;;;;;;;11.32;7.18;;;;;;;;;;4862405;29;20030;-80
2022/10/05 03:32:10;;;;;;;12.98;7.28;;;;;;;;;;4860639;29;20041;-76
2022/10/05 03:34:41;;;;;;;13.15;7.43;;;;;;;;;;4859011;29;20080;-79
2022/10/05 03:37:07;;;;;;;14.23;7.97;;;;;;;;;;4862619;29;20030;-77
2022/10/05 03:39:41;;;;;;;13.60;7.82;;;;;;;;;;4847689;29;20056;-77
2022/10/05 03:42:12;;;;;;;9.98;7.45;;;;;;;;;;4862303;29;20082;-78
2022/10/05 03:44:50;;;;;;;14.10;8.02;;;;;;;;;;4859830;29;20084;-77
2022/10/05 03:47:36;;;;;;;10.02;7.28;;;;;;;;;;4861405;29;20033;-77
2022/10/05 03:50:11;;;;;;;10.88;7.47;;;;;;;;;;4860059;29;20033;-79
2022/10/05 03:52:56;;;;;;;14.90;7.90;;;;;;;;;;4860513;29;20433;-80
2022/10/05 03:55:29;;;;;;;15.10;9.02;;;;;;;;;;4862553;29;20512;-77
2022/10/05 03:57:57;;;;;;;14.17;8.30;;;;;;;;;;4866368;29;20391;-79
2022/10/05 04:00:24;;;;;;;13.93;8.77;;;;;;;;;;4860761;29;20301;-78
2022/10/05 04:03:09;;;;;;;13.40;9.02;;;;;;;;;;4845473;29;20049;-76
2022/10/05 04:05:45;;;;;;;14.02;8.27;;;;;;;;;;4856415;29;20495;-80
2022/10/05 04:08:31;;;;;;;13.93;8.48;;;;;;;;;;4864527;29;20048;-77
2022/10/05 04:10:59;;;;;;;15.20;8.90;;;;;;;;;;4863465;29;20054;-76
2022/10/05 04:13:34;;;;;;;12.23;8.13;;;;;;;;;;4864150;29;20041;-80
2022/10/05 04:16:11;;;;;;;16.90;8.88;;;;;;;;;;4865480;29;20036;-78
2022/10/05 04:18:44;;;;;;;13.63;8.15;;;;;;;;;;4864792;29;20388;-78
2022/10/05 04:21:20;;;;;;;15.07;8.70;;;;;;;;;;4847827;29;20403;-76
2022/10/05 04:23:59;;;;;;;13.25;7.35;;;;;;;;;;4863788;29;20073;-78
2022/10/05 04:26:40;;;;;;;14.18;8.20;;;;;;;;;;4868160;29;20056;-78
2022/10/05 04:29:06;;;;;;;14.25;8.55;;;;;;;;;;4873899;29;20052;-78
2022/10/05 04:31:58;;;;;;;13.70;8.18;;;;;;;;;;4864664;29;20040;-76
2022/10/05 04:34:30;;;;;;;13.02;8.15;;;;;;;;;;4830983;29;20029;-76
2022/10/05 04:37:02;;;;;;;13.13;8.00;;;;;;;;;;4859605;29;20042;-76
2022/10/05 04:39:40;;;;;;;15.27;8.60;;;;;;;;;;4859602;29;21328;-76
2022/10/05 04:42:14;;;;;;;13.77;8.70;;;;;;;;;;4859238;29;20507;-76
2022/10/05 04:44:50;;;;;;;13.05;8.43;;;;;;;;;;4862265;29;20069;-78
2022/10/05 04:47:39;;;;;;;15.18;9.07;;;;;;;;;;4851585;29;20037;-77
2022/10/05 04:50:17;;;;;;;18.15;10.60;;;;;;;;;;4861993;29;20053;-78
2022/10/05 04:53:02;;;;;;;15.13;9.43;;;;;;;;;;4858208;29;20093;-77
2022/10/05 04:55:43;;;;;;;13.82;9.90;;;;;;;;;;4859130;29;20129;-78
2022/10/05 04:58:28;;;;;;;24.17;10.85;;;;;;;;;;4865518;29;20361;-79
2022/10/05 05:01:13;;;;;;;20.65;12.98;;;;;;;;;;4863895;29;20030;-76
2022/10/05 05:03:39;;;;;;;19.60;13.43;;;;;;;;;;4860776;29;20029;-75
2022/10/05 05:06:05;;;;;;;21.77;14.15;;;;;;;;;;4866066;29;20057;-77
2022/10/05 05:08:49;;;;;;;22.00;13.80;;;;;;;;;;4876254;29;20040;-75
2022/10/05 05:11:28;;;;;;;24.50;13.82;;;;;;;;;;4872790;29;20136;-77
2022/10/05 05:14:13;;;;;;;21.27;14.27;;;;;;;;;;4870663;29;20085;-77
2022/10/05 05:16:41;;;;;;;19.27;12.82;;;;;;;;;;4878015;29;20044;-78
2022/10/05 05:19:33;;;;;;;18.77;14.15;;;;;;;;;;4865534;29;20109;-78
2022/10/05 05:22:06;;;;;;;23.48;13.93;;;;;;;;;;4869757;29;20089;-78
2022/10/05 05:24:38;;;;;;;20.07;12.57;;;;;;;;;;4867649;29;20093;-79
2022/10/05 05:27:07;;;;;;;19.30;11.60;;;;;;;;;;4869530;29;20504;-79
2022/10/05 05:29:43;;;;;;;13.95;11.05;;;;;;;;;;4858936;29;20202;-80
2022/10/05 05:32:32;;;;;;;17.45;10.05;;;;;;;;;;4856268;29;20037;-78
2022/10/05 05:34:59;;;;;;;20.23;15.13;;;;;;;;;;4872250;29;20063;-77
2022/10/05 05:37:55;;;;;;;39.63;29.65;;;;;;;;;;4875307;29;20013;-78
2022/10/05 05:40:21;;;;;;;24.25;16.45;;;;;;;;;;4854491;29;20112;-76
2022/10/05 05:42:56;;;;;;;20.42;11.43;;;;;;;;;;4865877;29;20029;-78
2022/10/05 05:45:32;;;;;;;15.45;10.60;;;;;;;;;;4868489;29;20060;-77
2022/10/05 05:47:59;;;;;;;16.45;10.27;;;;;;;;;;4867584;29;20028;-76
2022/10/05 05:50:32;;;;;;;16.58;9.75;;;;;;;;;;4860118;29;20045;-79
2022/10/05 05:53:21;;;;;;;13.25;8.65;;;;;;;;;;4878087;29;20029;-80
2022/10/05 05:55:51;;;;;;;12.52;7.03;;;;;;;;;;4803265;30;20152;-79
2022/10/05 05:58:23;;;;;;;10.65;6.70;;;;;;;;;;4794896;30;20047;-78
2022/10/05 06:01:08;;;;;;;12.13;7.50;;;;;;;;;;4793847;30;20545;-79
2022/10/05 06:03:34;;;;;;;12.38;7.57;;;;;;;;;;4779435;30;20047;-76
2022/10/05 06:06:10;;;;;;;17.27;7.90;;;;;;;;;;4792147;29;20039;-79
2022/10/05 06:08:44;;;;;;;13.02;7.82;;;;;;;;;;4783410;29;20027;-79
2022/10/05 06:11:28;;;;;;;18.88;9.35;;;;;;;;;;4796133;29;20054;-80
2022/10/05 06:13:59;;;;;;;11.50;8.80;;;;;;;;;;4796363;30;20047;-77
2022/10/05 06:16:47;;;;;;;17.27;8.98;;;;;;;;;;4798723;30;20626;-77
2022/10/05 06:19:16;;;;;;;15.70;8.00;;;;;;;;;;4787282;30;20048;-77
2022/10/05 06:22:02;;;;;;;17.38;9.30;;;;;;;;;;4793069;30;20040;-79
2022/10/05 06:25:00;;;;;;;12.77;8.40;;;;;;;;;;4795740;29;20506;-79
2022/10/05 06:27:33;;;;;;;13.45;8.98;;;;;;;;;;4794531;29;20121;-78
2022/10/05 06:30:05;;;;;;;11.20;8.32;;;;;;;;;;4795981;29;20052;-78
2022/10/05 06:32:49;;;;;;;11.15;6.78;;;;;;;;;;4831763;29;20038;-79
2022/10/05 06:35:16;;;;;;;10.27;7.15;;;;;;;;;;4876622;29;20044;-79
2022/10/05 06:37:56;;;;;;;16.92;7.25;;;;;;;;;;4876530;29;20026;-80
2022/10/05 06:40:31;;;;;;;10.15;5.85;;;;;;;;;;4872709;29;20029;-77
2022/10/05 06:43:00;;;;;;;12.18;6.53;;;;;;;;;;4870840;29;20033;-79
2022/10/05 06:45:38;;;;;;;12.77;6.60;;;;;;;;;;4855073;29;20061;-78
2022/10/05 06:48:24;;;;;;;10.90;6.30;;;;;;;;;;4871694;29;20030;-79
2022/10/05 06:51:10;;;;;;;13.88;6.55;;;;;;;;;;4877295;29;20186;-82
2022/10/05 06:53:48;;;;;;;11.82;6.90;;;;;;;;;;4869607;29;20030;-78
2022/10/05 06:56:14;;;;;;;15.10;6.80;;;;;;;;;;4866170;29;20048;-78
2022/10/05 06:58:59;;;;;;;14.70;7.32;;;;;;;;;;4866012;29;20026;-78
2022/10/05 07:01:33;;;;;;;10.25;6.35;;;;;;;;;;4873849;29;20041;-78
2022/10/05 07:04:01;;;;;;;11.10;6.80;;;;;;;;;;4868467;29;20089;-78
2022/10/05 07:06:39;;;;;;;10.73;6.93;;;;;;;;;;4874621;29;20454;-77
2022/10/05 07:09:15;;;;;;;9.60;6.40;;;;;;;;;;4865357;29;20065;-78
2022/10/05 07:11:41;;;;;;;12.00;7.50;;;;;;;;;;4869527;29;20476;-76
2022/10/05 07:14:23;;;;;;;16.63;8.15;;;;;;;;;;4867428;29;20030;-77
2022/10/05 07:16:57;;;;;;;12.25;7.20;;;;;;;;;;4873279;29;20037;-79
2022/10/05 07:19:32;;;;;;;13.20;7.15;;;;;;;;;;4882053;29;20030;-77
2022/10/05 07:21:58;;;;;;;13.52;7.35;;;;;;;;;;4880645;29;20033;-77
2022/10/05 07:24:28;;;;;;;20.55;8.50;;;;;;;;;;4874451;29;20087;-81
2022/10/05 07:27:07;;;;;;;11.93;9.13;;;;;;;;;;4835697;29;1193783;-78
2022/10/05 07:29:57;;;;;;;12.77;7.55;;;;;;;;;;4881086;29;20112;-79
2022/10/05 07:32:23;;;;;;;15.43;8.00;;;;;;;;;;4875920;29;20118;-77
2022/10/05 07:34:57;;;;;;;14.13;7.47;;;;;;;;;;4873655;29;20030;-77
2022/10/05 07:40:19;;;;;;;23.02;8.80;;;;;;;;;;4869392;29;20069;-78
2022/10/05 07:43:05;;;;;;;13.20;7.45;;;;;;;;;;4859542;29;20129;-77
2022/10/05 07:45:40;;;;;;;10.32;7.43;;;;;;;;;;4805949;30;20063;-77
2022/10/05 07:48:31;;;;;;;13.85;7.97;;;;;;;;;;4796607;30;20051;-76
2022/10/05 07:51:18;;;;;;;12.65;8.70;;;;;;;;;;4795256;29;20055;-77
2022/10/05 07:53:52;;;;;;;10.98;7.88;;;;;;;;;;4796649;29;20461;-77
2022/10/05 07:56:21;;;;;;;11.52;9.07;;;;;;;;;;4797234;30;20056;-77
2022/10/05 07:58:52;;;;;;;15.73;9.65;;;;;;;;;;4795645;30;20043;-79
2022/10/05 08:01:28;;;;;;;13.02;9.15;;;;;;;;;;4798576;30;20046;-77
2022/10/05 08:03:57;;;;;;;14.18;9.85;;;;;;;;;;4798206;30;20194;-82
2022/10/05 08:06:33;;;;;;;15.25;9.05;;;;;;;;;;4792279;30;20027;-80
2022/10/05 08:09:04;;;;;;;16.45;10.15;;;;;;;;;;4787450;30;20047;-78
2022/10/05 08:11:33;;;;;;;15.30;10.13;;;;;;;;;;4791753;29;20456;-79
2022/10/05 08:14:02;;;;;;;17.65;9.70;;;;;;;;;;4788203;29;20546;-78
2022/10/05 08:16:32;;;;;;;14.48;9.73;;;;;;;;;;4799218;30;20035;-79
2022/10/05 08:19:17;;;;;;;14.20;9.23;;;;;;;;;;4783703;30;20033;-78
2022/10/05 08:21:45;;;;;;;14.25;8.88;;;;;;;;;;4786415;29;20041;-80
2022/10/05 08:24:11;;;;;;;11.27;8.75;;;;;;;;;;4881781;29;20080;-78
2022/10/05 08:26:51;;;;;;;21.50;9.23;;;;;;;;;;4867678;29;20102;-78
2022/10/05 08:29:23;;;;;;;15.25;8.20;;;;;;;;;;4867352;29;20037;-78
2022/10/05 08:31:51;;;;;;;14.15;7.90;;;;;;;;;;4868055;29;20388;-75
2022/10/05 08:34:44;;;;;;;9.63;6.55;;;;;;;;;;4859894;29;20044;-80
2022/10/05 08:37:20;;;;;;;12.98;6.38;;;;;;;;;;4793493;29;20044;-77
2022/10/05 08:40:04;;;;;;;10.95;4.60;;;;;;;;;;4787586;29;20031;-79
2022/10/05 08:42:49;;;;;;;9.77;5.05;;;;;;;;;;4789898;29;20062;-79
2022/10/05 08:45:30;;;;;;;8.10;4.53;;;;;;;;;;4786516;30;20058;-80
2022/10/05 08:48:20;;;;;;;12.43;4.72;;;;;;;;;;4788921;29;20376;-79
2022/10/05 08:51:04;;;;;;;7.82;3.42;;;;;;;;;;4790938;30;20035;-78
2022/10/05 08:53:42;;;;;;;8.52;4.40;;;;;;;;;;4780539;30;20063;-78
2022/10/05 08:56:34;;;;;;;7.22;3.65;;;;;;;;;;4787605;29;20113;-78
2022/10/05 08:59:21;;;;;;;10.27;3.45;;;;;;;;;;4729301;30;20059;-77
2022/10/05 09:01:49;;;;;;;6.53;3.83;;;;;;;;;;4690986;30;20045;-76
2022/10/05 09:04:28;;;;;;;9.02;4.00;;;;;;;;;;4684342;30;20058;-78
2022/10/05 09:07:13;;;;;;;10.43;4.38;;;;;;;;;;4690336;30;20054;-79
2022/10/05 09:09:57;;;;;;;10.35;4.50;;;;;;;;;;4691472;30;20050;-79
2022/10/05 09:12:43;;;;;;;10.30;4.80;;;;;;;;;;4686003;30;20034;-79
2022/10/05 09:15:27;;;;;;;8.38;4.70;;;;;;;;;;4726018;30;20045;-79
2022/10/05 09:18:11;;;;;;;8.32;4.30;;;;;;;;;;4723524;30;20041;-78
2022/10/05 09:20:58;;;;;;;10.13;4.20;;;;;;;;;;4715733;30;20041;-77
2022/10/05 09:23:26;;;;;;;12.43;4.47;;;;;;;;;;4710326;30;20037;-79
2022/10/05 09:26:08;;;;;;;6.95;3.90;;;;;;;;;;4716024;30;20412;-79
2022/10/05 09:28:43;;;;;;;6.50;3.42;;;;;;;;;;4714002;30;20147;-79
2022/10/05 09:31:28;;;;;;;8.90;3.97;;;;;;;;;;4718048;30;20041;-80
2022/10/05 09:34:14;;;;;;;8.95;3.85;;;;;;;;;;4724146;30;20119;-80
2022/10/05 09:36:59;;;;;;;7.47;3.78;;;;;;;;;;4786925;29;20099;-78
2022/10/05 09:39:44;;;;;;;11.60;4.40;;;;;;;;;;4853185;29;20045;-80
2022/10/05 09:42:13;;;;;;;7.88;2.92;;;;;;;;;;4871164;29;20049;-81
2022/10/05 09:44:48;;;;;;;8.52;3.33;;;;;;;;;;4870495;29;20034;-80
2022/10/05 09:47:17;;;;;;;5.25;3.40;;;;;;;;;;4863456;29;20026;-80
2022/10/05 09:49:50;;;;;;;7.13;4.00;;;;;;;;;;4858927;29;20033;-80
2022/10/05 09:52:44;;;;;;;6.88;3.60;;;;;;;;;;4864434;29;20041;-80
2022/10/05 09:55:29;;;;;;;5.85;3.65;;;;;;;;;;4856285;29;20582;-80
2022/10/05 09:58:36;;;;;;;9.23;3.80;;;;;;;;;;4874393;29;20037;-81
2022/10/05 10:01:31;;;;;;;6.35;3.45;;;;;;;;;;4861919;29;20046;-81
2022/10/05 10:04:18;;;;;;;4.82;3.05;;;;;;;;;;4875737;29;20061;-80
2022/10/05 10:07:14;;;;;;;7.47;3.35;;;;;;;;;;4847760;29;20030;-79
2022/10/05 10:10:30;;;;;;;9.17;3.40;;;;;;;;;;4875597;29;20041;-80
2022/10/05 10:13:37;;;;;;;7.30;3.47;;;;;;;;;;4825870;29;20019;-80
2022/10/05 10:16:15;;;;;;;5.95;3.53;;;;;;;;;;4812669;29;20019;-81
2022/10/05 10:19:30;;;;;;;12.20;3.90;;;;;;;;;;4826605;29;20047;-80
2022/10/05 10:22:32;;;;;;;5.68;3.30;;;;;;;;;;4768819;30;20040;-79
2022/10/05 10:25:18;;;;;;;5.70;3.60;;;;;;;;;;4770856;30;20036;-79
2022/10/05 10:28:24;;;;;;;10.55;3.90;;;;;;;;;;4772278;30;20033;-80
2022/10/05 10:31:07;;;;;;;;;;;;;;;;;;4772861;29;20078;-79
2022/10/05 10:34:10;;;;;;;7.03;3.95;;;;;;;;;;4773025;29;19974;-80
2022/10/05 10:36:41;;;;;;;;;;;;;;;;;;4756609;30;20041;-81
2022/10/05 10:39:23;;;;;;;6.68;4.05;;;;;;;;;;4757125;30;19899;-81
2022/10/05 10:42:23;;;;;;;6.43;3.40;;;;;;;;;;4774785;29;20076;-81
2022/10/05 10:45:25;;;;;;;7.18;3.70;;;;;;;;;;4775180;29;20044;-79
2022/10/05 10:48:22;;;;;;;7.13;3.25;;;;;;;;;;4772936;29;20033;-81
2022/10/05 10:51:22;;;;;;;10.93;4.80;;;;;;;;;;4777974;29;20063;-80
2022/10/05 10:54:07;;;;;;;8.82;4.30;;;;;;;;;;4733193;30;20044;-81
2022/10/05 10:56:55;;;;;;;9.13;4.07;;;;;;;;;;4724238;30;20060;-78
2022/10/05 10:59:30;;;;;;;7.28;3.55;;;;;;;;;;4790944;29;20043;-78
2022/10/05 11:02:15;;;;;;;5.70;3.40;;;;;;;;;;4784149;30;20035;-79
2022/10/05 11:05:00;;;;;;;9.18;4.18;;;;;;;;;;4794902;29;20141;-78
2022/10/05 11:07:38;;;;;;;5.40;3.65;;;;;;;;;;4781410;29;20782;-78
2022/10/05 11:10:08;;;;;;;9.48;4.45;;;;;;;;;;4789767;29;20103;-80
2022/10/05 11:12:53;;;;;;;6.85;3.60;;;;;;;;;;4778266;29;20064;-79
2022/10/05 11:15:28;;;;;;;10.35;3.88;;;;;;;;;;4786221;29;20039;-79
2022/10/05 11:18:10;;;;;;;8.95;2.92;;;;;;;;;;4774717;30;20054;-80
2022/10/05 11:20:51;;;;;;;7.55;3.10;;;;;;;;;;4790213;30;20100;-78
2022/10/05 11:23:27;;;;;;;5.03;3.72;;;;;;;;;;4775492;30;20145;-79
2022/10/05 11:26:00;;;;;;;6.45;3.08;;;;;;;;;;4776316;29;20097;-78
2022/10/05 11:28:45;;;;;;;6.00;2.60;;;;;;;;;;4800774;29;20035;-79
2022/10/05 11:31:36;;;;;;;8.63;3.50;;;;;;;;;;4863278;29;20046;-78
2022/10/05 11:34:02;;;;;;;6.45;3.03;;;;;;;;;;4858069;29;20021;-78
2022/10/05 11:36:54;;;;;;;4.88;2.60;;;;;;;;;;4840114;29;20507;-78
2022/10/05 11:39:44;;;;;;;8.68;3.22;;;;;;;;;;4837554;29;20049;-78
2022/10/05 11:42:25;;;;;;;5.45;2.97;;;;;;;;;;4775597;30;20083;-78
2022/10/05 11:45:10;;;;;;;6.00;2.50;;;;;;;;;;4766994;30;20067;-79
2022/10/05 11:47:42;;;;;;;6.32;3.30;;;;;;;;;;4789179;30;20078;-79
2022/10/05 11:50:27;;;;;;;6.00;2.95;;;;;;;;;;4789679;29;20047;-79
2022/10/05 11:53:05;;;;;;;5.07;2.70;;;;;;;;;;4787578;30;20077;-79
2022/10/05 11:55:34;;;;;;;7.07;2.70;;;;;;;;;;4789749;29;20067;-78
2022/10/05 11:58:15;;;;;;;10.50;3.65;;;;;;;;;;4771564;30;20147;-79
2022/10/05 12:01:05;;;;;;;5.72;2.63;;;;;;;;;;4781391;30;20069;-78
2022/10/05 12:03:41;;;;;;;5.90;2.70;;;;;;;;;;4777727;30;20061;-78
2022/10/05 12:06:17;;;;;;;5.18;2.97;;;;;;;;;;4789727;30;20059;-77
2022/10/05 12:08:49;;;;;;;5.22;2.70;;;;;;;;;;4788491;30;20038;-75
2022/10/05 12:11:34;;;;;;;4.85;2.53;;;;;;;;;;4787794;30;20043;-77
2022/10/05 12:14:04;;;;;;;5.72;2.70;;;;;;;;;;4787165;30;20089;-78
2022/10/05 12:16:36;;;;;;;8.05;4.25;;;;;;;;;;4788125;30;20043;-78
2022/10/05 12:19:26;;;;;;;6.88;2.90;;;;;;;;;;4821639;29;20113;-77
2022/10/05 12:21:58;;;;;;;8.88;3.80;;;;;;;;;;4859996;29;20490;-76
2022/10/05 12:24:38;;;;;;;7.40;3.10;;;;;;;;;;4861188;29;20045;-79
2022/10/05 12:27:07;;;;;;;4.40;2.50;;;;;;;;;;4864919;29;20045;-75
2022/10/05 12:30:03;;;;;;;5.43;3.03;;;;;;;;;;4847833;29;20064;-75
2022/10/05 12:32:33;;;;;;;9.43;2.83;;;;;;;;;;4814926;29;20118;-76
2022/10/05 12:35:04;;;;;;;5.55;2.97;;;;;;;;;;4809979;29;20122;-76
2022/10/05 12:37:42;;;;;;;4.05;2.65;;;;;;;;;;4814629;29;20533;-75
2022/10/05 12:40:16;;;;;;;10.75;3.00;;;;;;;;;;4816159;29;20046;-76
2022/10/05 12:43:06;;;;;;;9.88;3.45;;;;;;;;;;4807577;29;20043;-79
2022/10/05 12:45:50;;;;;;;7.93;3.17;;;;;;;;;;4767676;30;20044;-74
2022/10/05 12:48:19;;;;;;;5.25;2.67;;;;;;;;;;4769326;30;20063;-75
2022/10/05 12:50:56;;;;;;;11.95;4.05;;;;;;;;;;4768968;30;20107;-77
2022/10/05 12:53:22;;;;;;;6.20;2.60;;;;;;;;;;4770942;30;20040;-77
2022/10/05 12:55:52;;;;;;;6.65;3.03;;;;;;;;;;4760188;30;20087;-76
2022/10/05 12:58:18;;;;;;;7.55;2.70;;;;;;;;;;4760274;30;20039;-77
2022/10/05 13:00:53;;;;;;;6.38;2.90;;;;;;;;;;4775961;30;20079;-76
2022/10/05 13:03:27;;;;;;;8.00;2.90;;;;;;;;;;4772548;30;20097;-76
2022/10/05 13:05:59;;;;;;;5.15;3.00;;;;;;;;;;4770063;30;20071;-79
2022/10/05 13:08:35;;;;;;;6.90;3.08;;;;;;;;;;4776651;30;20051;-76
2022/10/05 13:11:05;;;;;;;9.70;3.55;;;;;;;;;;4804826;29;20105;-75
2022/10/05 13:13:45;;;;;;;7.15;3.10;;;;;;;;;;4809768;29;20131;-77
2022/10/05 13:16:14;;;;;;;8.80;3.65;;;;;;;;;;4806518;29;20046;-75
2022/10/05 13:18:48;;;;;;;8.02;3.53;;;;;;;;;;4807722;29;20338;-79
2022/10/05 13:21:17;;;;;;;10.88;4.25;;;;;;;;;;4806250;29;20099;-76
2022/10/05 13:23:43;;;;;;;8.90;4.10;;;;;;;;;;4864399;29;20025;-76
2022/10/05 13:26:11;;;;;;;9.05;4.20;;;;;;;;;;4862614;29;20057;-78
2022/10/05 13:28:43;;;;;;;10.10;3.70;;;;;;;;;;4865586;29;20053;-76
2022/10/05 13:31:12;;;;;;;7.05;2.92;;;;;;;;;;4864533;29;20440;-77
2022/10/05 13:33:38;;;;;;;6.85;3.03;;;;;;;;;;4864908;29;20025;-75
2022/10/05 13:36:08;;;;;;;5.40;2.50;;;;;;;;;;4863453;29;20040;-75
2022/10/05 13:38:35;;;;;;;5.25;3.08;;;;;;;;;;4862996;29;20022;-76
2022/10/05 13:41:22;;;;;;;8.20;3.60;;;;;;;;;;4862446;29;20129;-75
2022/10/05 13:43:54;;;;;;;7.28;5.20;;;;;;;;;;4863970;29;20132;-76
2022/10/05 13:46:36;;;;;;;6.97;3.63;;;;;;;;;;4863246;29;20084;-76
2022/10/05 13:49:28;;;;;;;10.18;3.30;;;;;;;;;;4864681;29;20025;-76
2022/10/05 13:51:54;;;;;;;6.57;3.60;;;;;;;;;;4843145;29;20037;-78
2022/10/05 13:54:27;;;;;;;8.30;2.88;;;;;;;;;;4866114;29;20496;-78
2022/10/05 13:57:02;;;;;;;9.27;3.00;;;;;;;;;;4864673;29;20030;-75
2022/10/05 13:59:32;;;;;;;9.25;3.33;;;;;;;;;;4873540;29;20214;-77
2022/10/05 14:02:01;;;;;;;7.57;2.88;;;;;;;;;;4867574;29;20036;-76
2022/10/05 14:04:28;;;;;;;9.65;3.13;;;;;;;;;;4868475;29;20037;-78
2022/10/05 14:06:55;;;;;;;9.77;3.80;;;;;;;;;;4866515;29;20025;-75
2022/10/05 14:09:21;;;;;;;7.65;3.58;;;;;;;;;;4865682;29;20044;-77
2022/10/05 14:12:07;;;;;;;8.40;3.83;;;;;;;;;;4865650;29;20022;-76
2022/10/05 14:14:42;;;;;;;12.77;3.60;;;;;;;;;;4848477;29;20062;-75
2022/10/05 14:17:16;;;;;;;11.55;4.32;;;;;;;;;;4874925;29;20021;-75
2022/10/05 14:19:44;;;;;;;7.47;3.63;;;;;;;;;;4864828;29;20169;-75
2022/10/05 14:22:15;;;;;;;8.25;3.92;;;;;;;;;;4871597;29;20073;-77
2022/10/05 14:24:57;;;;;;;9.25;4.60;;;;;;;;;;4874620;29;20035;-75
2022/10/05 14:27:27;;;;;;;8.40;3.03;;;;;;;;;;4875885;29;20049;-76
2022/10/05 14:29:58;;;;;;;12.27;4.93;;;;;;;;;;4872369;29;20365;-74
2022/10/05 14:32:25;;;;;;;10.23;4.78;;;;;;;;;;4868695;29;20005;-75
2022/10/05 14:35:00;;;;;;;8.60;4.50;;;;;;;;;;4869572;29;20044;-75
2022/10/05 14:37:31;;;;;;;10.15;3.95;;;;;;;;;;4867278;29;20093;-76
2022/10/05 14:40:01;;;;;;;12.20;4.07;;;;;;;;;;4869340;29;20539;-75
2022/10/05 14:42:30;;;;;;;13.73;4.90;;;;;;;;;;4858038;29;20081;-77
2022/10/05 14:45:16;;;;;;;9.13;4.13;;;;;;;;;;4867949;29;20048;-76
2022/10/05 14:47:48;;;;;;;10.75;4.03;;;;;;;;;;4865968;29;20029;-76
2022/10/05 14:50:17;;;;;;;9.07;3.50;;;;;;;;;;4868190;29;20025;-76
2022/10/05 14:53:01;;;;;;;8.27;3.42;;;;;;;;;;4867159;29;20280;-75
2022/10/05 14:55:43;;;;;;;5.93;3.05;;;;;;;;;;4867385;29;20093;-75
2022/10/05 14:58:29;;;;;;;9.10;4.70;;;;;;;;;;4867637;29;20061;-75
2022/10/05 15:01:26;;;;;;;9.35;6.22;;;;;;;;;;4860804;29;20061;-75
2022/10/05 15:03:57;;;;;;;15.88;6.03;;;;;;;;;;4861996;29;20037;-76
2022/10/05 15:06:29;;;;;;;12.40;4.70;;;;;;;;;;4864539;29;20468;-76
2022/10/05 15:09:07;;;;;;;7.40;4.35;;;;;;;;;;4866868;29;20109;-75
2022/10/05 15:11:41;;;;;;;9.50;4.93;;;;;;;;;;4860394;29;20034;-75
2022/10/05 15:14:14;;;;;;;12.10;5.60;;;;;;;;;;4868776;29;20096;-75
2022/10/05 15:16:41;;;;;;;;;;;;;;;;;;4861493;29;20033;-77
2022/10/05 15:19:31;;;;;;;12.43;4.57;;;;;;;;;;4872739;29;20002;-75
2022/10/05 15:21:58;;;;;;;10.73;4.43;;;;;;;;;;4868083;29;20029;-74
2022/10/05 15:24:31;;;;;;;6.72;3.55;;;;;;;;;;4867863;29;20025;-75
2022/10/05 15:26:58;;;;;;;13.20;4.05;;;;;;;;;;4865937;29;20181;-75
2022/10/05 15:29:30;;;;;;;18.95;4.40;;;;;;;;;;4867685;29;20025;-75
2022/10/05 15:32:06;;;;;;;21.17;4.93;;;;;;;;;;4860631;29;20022;-76
2022/10/05 15:34:40;;;;;;;11.52;4.15;;;;;;;;;;4864001;29;20052;-75